createdAt,value
2023-02-03T00:00:05.929Z,69.38
2023-02-03T00:01:05.919Z,69.38
2023-02-03T00:02:05.988Z,69.38
2023-02-03T00:03:05.918Z,69.38
2023-02-03T00:04:05.870Z,69.38
2023-02-03T00:05:05.905Z,69.38
2023-02-03T00:06:05.882Z,69.38
2023-02-03T00:07:05.877Z,69.38
2023-02-03T00:08:05.851Z,69.38
2023-02-03T00:09:05.815Z,69.38
2023-02-03T00:10:05.839Z,69.38
2023-02-03T00:11:05.807Z,69.38
2023-02-03T00:12:05.800Z,69.38
2023-02-03T00:13:05.798Z,69.38
2023-02-03T00:14:05.769Z,69.38
2023-02-03T00:15:05.757Z,69.38
2023-02-03T00:16:05.769Z,69.38
2023-02-03T00:17:05.734Z,69.38
2023-02-03T00:18:05.741Z,69.38
2023-02-03T00:19:05.837Z,69.38
2023-02-03T00:20:05.736Z,69.48
2023-02-03T00:21:05.684Z,69.48
2023-02-03T00:22:05.674Z,69.48
2023-02-03T00:23:05.688Z,69.48
2023-02-03T00:24:05.677Z,69.48
2023-02-03T00:25:05.661Z,69.48
2023-02-03T00:26:05.632Z,69.48
2023-02-03T00:27:05.634Z,69.48
2023-02-03T00:28:05.743Z,69.48
2023-02-03T00:29:05.616Z,69.48
2023-02-03T00:30:05.594Z,69.48
2023-02-03T00:31:05.582Z,69.38
2023-02-03T00:32:05.622Z,69.38
2023-02-03T00:33:05.571Z,69.38
2023-02-03T00:34:05.541Z,69.38
2023-02-03T00:35:05.567Z,69.38
2023-02-03T00:36:05.523Z,69.38
2023-02-03T00:37:05.507Z,69.38
2023-02-03T00:38:05.513Z,69.38
2023-02-03T00:39:05.497Z,69.27
2023-02-03T00:40:05.488Z,69.27
2023-02-03T00:41:05.476Z,69.38
2023-02-03T00:42:05.466Z,69.27
2023-02-03T00:43:05.447Z,69.27
2023-02-03T00:44:05.452Z,69.27
2023-02-03T00:45:05.423Z,69.27
2023-02-03T00:46:05.489Z,69.27
2023-02-03T00:47:05.428Z,69.27
2023-02-03T00:48:05.429Z,69.27
2023-02-03T00:49:05.369Z,69.31
2023-02-03T00:50:05.403Z,69.27
2023-02-03T00:51:05.359Z,69.31
2023-02-03T00:52:05.356Z,69.31
2023-02-03T00:53:05.357Z,69.31
2023-02-03T00:54:05.336Z,69.31
2023-02-03T00:55:05.309Z,69.31
2023-02-03T00:56:05.312Z,69.31
2023-02-03T00:57:05.303Z,69.31
2023-02-03T00:58:05.290Z,69.31
2023-02-03T00:59:05.281Z,69.31
2023-02-03T01:00:05.250Z,69.31
2023-02-03T01:01:05.241Z,69.21
2023-02-03T01:02:05.315Z,69.21
2023-02-03T01:03:05.227Z,69.21
2023-02-03T01:04:05.223Z,69.21
2023-02-03T01:05:05.212Z,69.21
2023-02-03T01:06:05.203Z,69.31
2023-02-03T01:07:05.196Z,69.31
2023-02-03T01:08:05.183Z,69.21
2023-02-03T01:09:05.182Z,69.21
2023-02-03T01:10:05.142Z,69.21
2023-02-03T01:11:05.130Z,69.21
2023-02-03T01:12:05.169Z,69.21
2023-02-03T01:13:05.123Z,69.21
2023-02-03T01:14:05.117Z,69.21
2023-02-03T01:15:05.098Z,69.21
2023-02-03T01:16:05.078Z,69.21
2023-02-03T01:17:05.116Z,69.21
2023-02-03T01:18:05.077Z,69.21
2023-02-03T01:19:05.063Z,69.21
2023-02-03T01:20:05.110Z,69.21
2023-02-03T01:21:05.030Z,69.21
2023-02-03T01:22:05.040Z,69.21
2023-02-03T01:23:05.013Z,69.21
2023-02-03T01:24:05.040Z,69.21
2023-02-03T01:25:04.980Z,69.21
2023-02-03T01:26:04.973Z,69.21
2023-02-03T01:27:04.974Z,69.24
2023-02-03T01:28:04.978Z,69.21
2023-02-03T01:29:04.971Z,69.10
2023-02-03T01:30:04.949Z,69.21
2023-02-03T01:31:05.016Z,69.24
2023-02-03T01:32:04.969Z,69.24
2023-02-03T01:33:04.900Z,69.24
2023-02-03T01:34:04.884Z,69.14
2023-02-03T01:35:04.896Z,69.24
2023-02-03T01:36:04.854Z,69.24
2023-02-03T01:37:04.864Z,69.14
2023-02-03T01:38:04.839Z,69.14
2023-02-03T01:39:04.831Z,69.14
2023-02-03T01:40:09.530Z,69.24
2023-02-03T01:41:04.829Z,69.14
2023-02-03T01:42:04.826Z,69.14
2023-02-03T01:43:04.782Z,69.14
2023-02-03T01:44:04.778Z,69.24
2023-02-03T01:45:04.772Z,69.24
2023-02-03T01:46:04.827Z,69.24
2023-02-03T01:47:04.746Z,69.24
2023-02-03T01:48:04.716Z,69.24
2023-02-03T01:49:04.716Z,69.24
2023-02-03T01:50:04.723Z,69.24
2023-02-03T01:51:04.715Z,69.34
2023-02-03T01:52:04.736Z,69.44
2023-02-03T01:53:04.697Z,69.44
2023-02-03T01:54:04.667Z,69.44
2023-02-03T01:55:04.643Z,69.34
2023-02-03T01:56:04.625Z,69.24
2023-02-03T01:57:04.662Z,69.24
2023-02-03T01:58:04.820Z,69.24
2023-02-03T01:59:04.616Z,69.14
2023-02-03T02:00:04.586Z,69.14
2023-02-03T02:01:04.621Z,69.24
2023-02-03T02:02:04.620Z,69.14
2023-02-03T02:03:04.638Z,69.14
2023-02-03T02:04:04.567Z,69.14
2023-02-03T02:05:04.535Z,69.14
2023-02-03T02:06:04.529Z,69.14
2023-02-03T02:07:04.540Z,69.14
2023-02-03T02:08:04.550Z,69.14
2023-02-03T02:09:04.511Z,69.04
2023-02-03T02:10:04.472Z,69.14
2023-02-03T02:11:04.496Z,69.04
2023-02-03T02:12:04.462Z,69.24
2023-02-03T02:13:04.475Z,69.24
2023-02-03T02:14:04.452Z,69.24
2023-02-03T02:15:04.447Z,69.24
2023-02-03T02:16:04.468Z,69.14
2023-02-03T02:17:04.413Z,69.14
2023-02-03T02:18:04.404Z,69.14
2023-02-03T02:19:04.405Z,69.14
2023-02-03T02:20:04.383Z,69.14
2023-02-03T02:21:04.387Z,69.04
2023-02-03T02:22:04.359Z,68.94
2023-02-03T02:23:04.368Z,68.94
2023-02-03T02:24:04.322Z,68.94
2023-02-03T02:25:04.335Z,68.84
2023-02-03T02:26:04.315Z,68.87
2023-02-03T02:27:04.320Z,68.77
2023-02-03T02:28:04.352Z,68.77
2023-02-03T02:29:04.272Z,68.66
2023-02-03T02:30:04.300Z,68.66
2023-02-03T02:31:04.444Z,68.66
2023-02-03T02:32:04.340Z,68.66
2023-02-03T02:33:04.248Z,68.66
2023-02-03T02:34:04.231Z,68.56
2023-02-03T02:35:04.234Z,68.56
2023-02-03T02:36:04.202Z,68.56
2023-02-03T02:37:04.187Z,68.46
2023-02-03T02:38:04.182Z,68.46
2023-02-03T02:39:04.163Z,68.46
2023-02-03T02:40:04.154Z,68.46
2023-02-03T02:41:04.324Z,68.46
2023-02-03T02:42:04.140Z,68.46
2023-02-03T02:43:04.139Z,68.46
2023-02-03T02:44:04.124Z,68.36
2023-02-03T02:45:04.125Z,68.36
2023-02-03T02:46:04.142Z,68.36
2023-02-03T02:47:04.107Z,68.36
2023-02-03T02:48:04.078Z,68.36
2023-02-03T02:49:04.053Z,68.36
2023-02-03T02:50:04.034Z,68.26
2023-02-03T02:51:04.053Z,68.26
2023-02-03T02:52:04.039Z,68.26
2023-02-03T02:53:12.730Z,68.26
2023-02-03T02:54:04.724Z,68.26
2023-02-03T02:55:06.717Z,68.26
2023-02-03T02:56:03.989Z,68.26
2023-02-03T02:57:04.001Z,68.26
2023-02-03T02:58:03.998Z,68.26
2023-02-03T02:59:03.977Z,68.16
2023-02-03T03:00:03.967Z,68.16
2023-02-03T03:01:03.933Z,68.16
2023-02-03T03:02:03.965Z,68.16
2023-02-03T03:03:03.931Z,68.06
2023-02-03T03:04:03.928Z,68.16
2023-02-03T03:05:03.920Z,68.16
2023-02-03T03:06:03.906Z,68.16
2023-02-03T03:07:03.859Z,68.16
2023-02-03T03:08:04.165Z,68.16
2023-02-03T03:09:03.870Z,68.16
2023-02-03T03:10:03.815Z,68.16
2023-02-03T03:11:03.849Z,68.19
2023-02-03T03:12:03.849Z,68.16
2023-02-03T03:13:03.835Z,68.19
2023-02-03T03:14:03.797Z,68.19
2023-02-03T03:15:03.765Z,68.09
2023-02-03T03:16:03.774Z,68.09
2023-02-03T03:17:03.745Z,68.09
2023-02-03T03:18:03.753Z,68.06
2023-02-03T03:19:03.731Z,68.19
2023-02-03T03:20:03.708Z,68.09
2023-02-03T03:21:03.700Z,68.09
2023-02-03T03:22:03.739Z,68.09
2023-02-03T03:23:03.715Z,68.09
2023-02-03T03:24:03.718Z,68.09
2023-02-03T03:25:03.714Z,68.09
2023-02-03T03:26:03.631Z,68.09
2023-02-03T03:27:03.636Z,68.09
2023-02-03T03:28:03.626Z,68.09
2023-02-03T03:29:03.657Z,68.09
2023-02-03T03:30:03.601Z,68.09
2023-02-03T03:31:03.683Z,68.09
2023-02-03T03:32:03.673Z,68.09
2023-02-03T03:33:03.585Z,68.09
2023-02-03T03:34:03.549Z,68.09
2023-02-03T03:35:03.583Z,68.09
2023-02-03T03:36:03.596Z,68.09
2023-02-03T03:37:03.551Z,68.09
2023-02-03T03:38:03.523Z,67.99
2023-02-03T03:39:03.507Z,67.99
2023-02-03T03:40:10.557Z,67.99
2023-02-03T03:41:11.094Z,67.99
2023-02-03T03:42:03.471Z,67.99
2023-02-03T03:43:03.455Z,67.99
2023-02-03T03:44:03.444Z,67.99
2023-02-03T03:45:03.461Z,67.99
2023-02-03T03:46:03.465Z,67.99
2023-02-03T03:47:03.435Z,67.99
2023-02-03T03:48:03.417Z,67.99
2023-02-03T03:49:03.417Z,67.99
2023-02-03T03:50:03.401Z,67.89
2023-02-03T03:51:03.408Z,67.99
2023-02-03T03:52:03.402Z,67.89
2023-02-03T03:53:03.379Z,67.89
2023-02-03T03:54:03.378Z,67.89
2023-02-03T03:55:03.351Z,67.89
2023-02-03T03:56:03.338Z,67.89
2023-02-03T03:57:03.320Z,67.89
2023-02-03T03:58:03.301Z,67.89
2023-02-03T03:59:03.344Z,67.89
2023-02-03T04:00:03.284Z,67.79
2023-02-03T04:01:03.301Z,67.89
2023-02-03T04:02:03.395Z,67.79
2023-02-03T04:03:03.337Z,67.79
2023-02-03T04:04:03.249Z,67.79
2023-02-03T04:05:03.238Z,67.89
2023-02-03T04:06:03.206Z,67.89
2023-02-03T04:07:03.222Z,67.99
2023-02-03T04:08:03.203Z,67.99
2023-02-03T04:09:03.203Z,67.99
2023-02-03T04:10:03.166Z,67.99
2023-02-03T04:11:03.152Z,67.89
2023-02-03T04:12:03.152Z,67.89
2023-02-03T04:13:03.151Z,67.99
2023-02-03T04:14:03.136Z,67.99
2023-02-03T04:15:03.158Z,67.99
2023-02-03T04:16:03.157Z,67.99
2023-02-03T04:17:03.151Z,67.99
2023-02-03T04:18:03.120Z,67.99
2023-02-03T04:19:03.080Z,67.99
2023-02-03T04:20:03.073Z,67.99
2023-02-03T04:21:03.086Z,67.99
2023-02-03T04:22:03.073Z,67.99
2023-02-03T04:23:03.032Z,68.02
2023-02-03T04:24:03.008Z,68.02
2023-02-03T04:25:03.040Z,68.02
2023-02-03T04:26:02.997Z,67.99
2023-02-03T04:27:05.181Z,68.02
2023-02-03T04:28:03.039Z,68.02
2023-02-03T04:29:02.971Z,68.02
2023-02-03T04:30:02.952Z,68.02
2023-02-03T04:31:03.002Z,68.02
2023-02-03T04:32:02.980Z,68.02
2023-02-03T04:33:02.928Z,68.12
2023-02-03T04:34:02.914Z,68.12
2023-02-03T04:35:02.895Z,68.12
2023-02-03T04:36:02.878Z,68.12
2023-02-03T04:37:02.866Z,68.12
2023-02-03T04:38:02.848Z,68.12
2023-02-03T04:39:02.869Z,68.12
2023-02-03T04:40:02.838Z,68.12
2023-02-03T04:41:02.827Z,68.12
2023-02-03T04:42:02.807Z,68.12
2023-02-03T04:43:02.825Z,68.12
2023-02-03T04:44:02.827Z,68.12
2023-02-03T04:45:02.795Z,68.23
2023-02-03T04:46:02.783Z,68.23
2023-02-03T04:47:02.765Z,68.23
2023-02-03T04:48:02.756Z,68.23
2023-02-03T04:49:02.774Z,68.23
2023-02-03T04:50:02.742Z,68.23
2023-02-03T04:51:02.768Z,68.23
2023-02-03T04:52:02.721Z,68.23
2023-02-03T04:53:02.699Z,68.23
2023-02-03T04:54:02.697Z,68.23
2023-02-03T04:55:02.715Z,68.23
2023-02-03T04:56:02.677Z,68.23
2023-02-03T04:57:02.649Z,68.23
2023-02-03T04:58:02.684Z,68.23
2023-02-03T04:59:02.637Z,68.32
2023-02-03T05:00:02.674Z,68.32
2023-02-03T05:01:02.668Z,68.32
2023-02-03T05:02:02.608Z,68.32
2023-02-03T05:03:02.589Z,68.32
2023-02-03T05:04:02.599Z,68.32
2023-02-03T05:05:02.572Z,68.43
2023-02-03T05:06:02.573Z,68.43
2023-02-03T05:07:02.570Z,68.43
2023-02-03T05:08:02.565Z,68.43
2023-02-03T05:09:02.525Z,68.43
2023-02-03T05:10:02.545Z,68.43
2023-02-03T05:11:02.780Z,68.43
2023-02-03T05:12:02.525Z,68.43
2023-02-03T05:13:02.546Z,68.43
2023-02-03T05:14:02.485Z,68.43
2023-02-03T05:15:02.468Z,68.43
2023-02-03T05:16:02.475Z,68.52
2023-02-03T05:17:02.430Z,68.52
2023-02-03T05:18:02.432Z,68.43
2023-02-03T05:19:02.430Z,68.43
2023-02-03T05:20:02.403Z,68.43
2023-02-03T05:21:02.376Z,68.43
2023-02-03T05:22:02.392Z,68.43
2023-02-03T05:23:02.375Z,68.43
2023-02-03T05:24:02.396Z,68.43
2023-02-03T05:25:02.363Z,68.43
2023-02-03T05:26:02.344Z,68.43
2023-02-03T05:27:02.337Z,68.43
2023-02-03T05:28:02.380Z,68.43
2023-02-03T05:29:02.306Z,68.43
2023-02-03T05:30:02.359Z,68.43
2023-02-03T05:31:02.331Z,68.43
2023-02-03T05:32:02.391Z,68.46
2023-02-03T05:33:02.262Z,68.43
2023-02-03T05:34:02.283Z,68.43
2023-02-03T05:35:02.265Z,68.46
2023-02-03T05:36:02.263Z,68.43
2023-02-03T05:37:02.192Z,68.46
2023-02-03T05:38:02.205Z,68.46
2023-02-03T05:39:02.178Z,68.46
2023-02-03T05:40:02.217Z,68.46
2023-02-03T05:41:02.185Z,68.46
2023-02-03T05:42:02.149Z,68.46
2023-02-03T05:43:02.150Z,68.46
2023-02-03T05:44:02.145Z,68.46
2023-02-03T05:45:02.119Z,68.46
2023-02-03T05:46:02.179Z,68.46
2023-02-03T05:47:02.134Z,68.46
2023-02-03T05:48:02.107Z,68.46
2023-02-03T05:49:02.071Z,68.46
2023-02-03T05:50:02.071Z,68.46
2023-02-03T05:51:02.085Z,68.46
2023-02-03T05:52:02.077Z,68.56
2023-02-03T05:53:02.033Z,68.46
2023-02-03T05:54:02.038Z,68.46
2023-02-03T05:55:02.012Z,68.56
2023-02-03T05:56:02.010Z,68.56
2023-02-03T05:57:02.012Z,68.56
2023-02-03T05:58:02.013Z,68.56
2023-02-03T05:59:01.991Z,68.56
2023-02-03T06:00:01.982Z,68.56
2023-02-03T06:01:01.967Z,68.56
2023-02-03T06:02:01.965Z,68.66
2023-02-03T06:03:02.036Z,68.66
2023-02-03T06:04:02.055Z,68.76
2023-02-03T06:05:01.911Z,68.66
2023-02-03T06:06:01.906Z,68.66
2023-02-03T06:07:01.887Z,68.66
2023-02-03T06:08:01.886Z,68.66
2023-02-03T06:09:01.860Z,68.66
2023-02-03T06:10:01.866Z,68.66
2023-02-03T06:11:01.853Z,68.66
2023-02-03T06:12:01.845Z,68.76
2023-02-03T06:13:01.830Z,68.76
2023-02-03T06:14:01.842Z,68.76
2023-02-03T06:15:01.789Z,68.76
2023-02-03T06:16:01.778Z,68.76
2023-02-03T06:17:01.836Z,68.76
2023-02-03T06:18:01.757Z,68.76
2023-02-03T06:19:01.784Z,68.76
2023-02-03T06:20:01.751Z,68.76
2023-02-03T06:21:01.753Z,68.76
2023-02-03T06:22:01.730Z,68.76
2023-02-03T06:23:01.704Z,68.76
2023-02-03T06:24:01.739Z,68.76
2023-02-03T06:25:01.689Z,68.76
2023-02-03T06:26:01.677Z,68.76
2023-02-03T06:27:01.702Z,68.76
2023-02-03T06:28:01.722Z,68.76
2023-02-03T06:29:01.638Z,68.76
2023-02-03T06:30:01.634Z,68.76
2023-02-03T06:31:01.787Z,68.76
2023-02-03T06:32:01.753Z,68.76
2023-02-03T06:33:01.611Z,68.87
2023-02-03T06:34:01.625Z,68.87
2023-02-03T06:35:01.594Z,68.87
2023-02-03T06:36:01.581Z,68.87
2023-02-03T06:37:01.581Z,68.87
2023-02-03T06:38:01.566Z,68.87
2023-02-03T06:39:01.637Z,68.87
2023-02-03T06:40:01.560Z,68.87
2023-02-03T06:41:01.576Z,68.87
2023-02-03T06:42:01.517Z,68.87
2023-02-03T06:43:01.520Z,68.96
2023-02-03T06:44:01.485Z,68.96
2023-02-03T06:45:01.465Z,68.96
2023-02-03T06:46:01.490Z,68.96
2023-02-03T06:47:01.458Z,68.96
2023-02-03T06:48:01.455Z,68.96
2023-02-03T06:49:01.471Z,68.96
2023-02-03T06:50:01.402Z,69.07
2023-02-03T06:51:01.406Z,69.07
2023-02-03T06:52:01.394Z,69.07
2023-02-03T06:53:01.362Z,69.10
2023-02-03T06:54:01.376Z,69.10
2023-02-03T06:55:01.376Z,69.07
2023-02-03T06:56:01.376Z,69.10
2023-02-03T06:57:01.320Z,69.07
2023-02-03T06:58:01.344Z,69.07
2023-02-03T06:59:01.321Z,69.10
2023-02-03T07:00:01.344Z,69.10
2023-02-03T07:01:01.320Z,69.10
2023-02-03T07:02:01.297Z,69.10
2023-02-03T07:03:01.407Z,69.10
2023-02-03T07:04:01.275Z,69.10
2023-02-03T07:05:01.251Z,69.10
2023-02-03T07:06:01.258Z,69.10
2023-02-03T07:07:01.248Z,69.10
2023-02-03T07:08:01.213Z,69.10
2023-02-03T07:09:01.966Z,69.10
2023-02-03T07:10:01.212Z,69.20
2023-02-03T07:11:01.203Z,69.20
2023-02-03T07:12:01.203Z,69.10
2023-02-03T07:13:01.187Z,69.10
2023-02-03T07:14:01.159Z,69.10
2023-02-03T07:15:01.165Z,69.10
2023-02-03T07:16:01.255Z,69.10
2023-02-03T07:17:01.118Z,69.10
2023-02-03T07:18:01.124Z,69.10
2023-02-03T07:19:01.088Z,69.10
2023-02-03T07:20:01.076Z,69.10
2023-02-03T07:21:01.066Z,69.10
2023-02-03T07:22:01.089Z,69.10
2023-02-03T07:23:01.063Z,69.10
2023-02-03T07:24:01.051Z,69.10
2023-02-03T07:25:01.077Z,69.10
2023-02-03T07:26:01.053Z,69.10
2023-02-03T07:27:03.371Z,69.10
2023-02-03T07:28:01.058Z,69.10
2023-02-03T07:29:01.017Z,69.10
2023-02-03T07:30:01.009Z,69.10
2023-02-03T07:31:01.284Z,69.10
2023-02-03T07:32:01.088Z,69.10
2023-02-03T07:33:00.958Z,69.10
2023-02-03T07:34:00.970Z,69.10
2023-02-03T07:35:00.915Z,69.10
2023-02-03T07:36:00.941Z,69.10
2023-02-03T07:37:00.903Z,69.10
2023-02-03T07:38:00.885Z,69.10
2023-02-03T07:39:00.905Z,69.10
2023-02-03T07:40:00.930Z,69.10
2023-02-03T07:41:00.872Z,69.10
2023-02-03T07:42:00.874Z,69.10
2023-02-03T07:43:00.862Z,69.10
2023-02-03T07:44:00.825Z,69.10
2023-02-03T07:45:00.838Z,69.10
2023-02-03T07:46:00.804Z,69.10
2023-02-03T07:47:00.815Z,69.10
2023-02-03T07:48:00.794Z,69.10
2023-02-03T07:49:00.785Z,69.20
2023-02-03T07:50:00.762Z,69.20
2023-02-03T07:51:00.750Z,69.20
2023-02-03T07:52:00.749Z,69.20
2023-02-03T07:53:00.739Z,69.20
2023-02-03T07:54:00.730Z,69.20
2023-02-03T07:55:00.713Z,69.20
2023-02-03T07:56:00.782Z,69.20
2023-02-03T07:57:00.702Z,69.20
2023-02-03T07:58:03.131Z,69.20
2023-02-03T07:59:00.666Z,69.30
2023-02-03T08:00:00.674Z,69.30
2023-02-03T08:01:00.628Z,69.30
2023-02-03T08:02:00.709Z,69.30
2023-02-03T08:03:00.624Z,69.30
2023-02-03T08:04:00.632Z,69.30
2023-02-03T08:05:00.652Z,69.30
2023-02-03T08:06:00.596Z,69.30
2023-02-03T08:07:00.589Z,69.30
2023-02-03T08:08:00.588Z,69.30
2023-02-03T08:09:00.571Z,69.40
2023-02-03T08:10:00.547Z,69.40
2023-02-03T08:11:00.523Z,69.40
2023-02-03T08:12:00.519Z,69.40
2023-02-03T08:13:00.512Z,69.40
2023-02-03T08:14:00.510Z,69.40
2023-02-03T08:15:00.510Z,69.40
2023-02-03T08:16:00.567Z,69.40
2023-02-03T08:17:00.484Z,69.40
2023-02-03T08:18:00.472Z,69.40
2023-02-03T08:19:00.451Z,69.40
2023-02-03T08:20:00.430Z,69.40
2023-02-03T08:21:00.416Z,69.40
2023-02-03T08:22:00.440Z,69.40
2023-02-03T08:23:00.440Z,69.40
2023-02-03T08:24:00.385Z,69.40
2023-02-03T08:25:00.414Z,69.40
2023-02-03T08:26:00.362Z,69.40
2023-02-03T08:27:00.338Z,69.40
2023-02-03T08:28:00.412Z,69.40
2023-02-03T08:29:00.353Z,69.40
2023-02-03T08:30:00.314Z,69.40
2023-02-03T08:31:00.343Z,69.43
2023-02-03T08:32:00.337Z,69.40
2023-02-03T08:33:00.293Z,69.43
2023-02-03T08:34:00.300Z,69.40
2023-02-03T08:35:00.281Z,69.43
2023-02-03T08:36:10.475Z,69.43
2023-02-03T08:37:00.249Z,69.43
2023-02-03T08:38:00.243Z,69.43
2023-02-03T08:39:00.229Z,69.43
2023-02-03T08:40:00.231Z,69.43
2023-02-03T08:41:00.232Z,69.43
2023-02-03T08:42:00.175Z,69.54
2023-02-03T08:43:00.191Z,69.54
2023-02-03T08:44:00.185Z,69.54
2023-02-03T08:45:00.157Z,69.54
2023-02-03T08:46:00.241Z,69.54
2023-02-03T08:47:00.143Z,69.54
2023-02-03T08:48:00.514Z,69.54
2023-02-03T08:49:00.094Z,69.43
2023-02-03T08:50:00.123Z,69.43
2023-02-03T08:51:00.100Z,69.43
2023-02-03T08:52:00.082Z,69.43
2023-02-03T08:53:00.102Z,69.43
2023-02-03T08:54:00.070Z,69.43
2023-02-03T08:55:00.067Z,69.43
2023-02-03T08:56:00.212Z,69.43
2023-02-03T08:57:00.020Z,69.54
2023-02-03T08:58:00.046Z,69.54
2023-02-03T08:59:00.104Z,69.54
2023-02-03T09:00:00.001Z,69.54
2023-02-03T09:01:00.029Z,69.54
2023-02-03T09:01:59.989Z,69.43
2023-02-03T09:02:59.978Z,69.43
2023-02-03T09:03:59.987Z,69.43
2023-02-03T09:04:59.997Z,69.43
2023-02-03T09:05:59.960Z,69.54
2023-02-03T09:06:59.928Z,69.43
2023-02-03T09:07:59.987Z,69.54
2023-02-03T09:08:59.878Z,69.54
2023-02-03T09:09:59.891Z,69.64
2023-02-03T09:10:59.876Z,69.95
2023-02-03T09:11:59.887Z,70.04
2023-02-03T09:12:59.884Z,69.95
2023-02-03T09:13:59.853Z,69.95
2023-02-03T09:15:00.058Z,70.04
2023-02-03T09:15:59.833Z,70.04
2023-02-03T09:16:59.920Z,70.04
2023-02-03T09:17:59.826Z,70.15
2023-02-03T09:18:59.805Z,70.15
2023-02-03T09:19:59.810Z,70.15
2023-02-03T09:20:59.756Z,70.15
2023-02-03T09:21:59.790Z,70.15
2023-02-03T09:22:59.760Z,70.15
2023-02-03T09:23:59.772Z,70.35
2023-02-03T09:25:06.789Z,70.55
2023-02-03T09:25:59.720Z,70.65
2023-02-03T09:26:59.685Z,70.65
2023-02-03T09:27:59.769Z,70.55
2023-02-03T09:28:59.677Z,70.55
2023-02-03T09:29:59.663Z,70.45
2023-02-03T09:30:59.659Z,70.35
2023-02-03T09:31:59.684Z,70.35
2023-02-03T09:32:59.655Z,70.25
2023-02-03T09:33:59.614Z,70.15
2023-02-03T09:34:59.666Z,70.15
2023-02-03T09:35:59.592Z,70.15
2023-02-03T09:36:59.595Z,70.15
2023-02-03T09:37:59.585Z,70.04
2023-02-03T09:38:59.587Z,70.04
2023-02-03T09:39:59.554Z,70.04
2023-02-03T09:41:10.516Z,70.04
2023-02-03T09:42:01.321Z,70.04
2023-02-03T09:42:59.513Z,70.04
2023-02-03T09:43:59.505Z,70.04
2023-02-03T09:44:59.509Z,70.04
2023-02-03T09:45:59.513Z,70.04
2023-02-03T09:46:59.496Z,70.04
2023-02-03T09:47:59.648Z,69.95
2023-02-03T09:48:59.736Z,69.95
2023-02-03T09:49:59.431Z,69.95
2023-02-03T09:50:59.461Z,69.95
2023-02-03T09:51:59.428Z,69.95
2023-02-03T09:52:59.431Z,69.95
2023-02-03T09:53:59.568Z,69.95
2023-02-03T09:54:59.497Z,69.84
2023-02-03T09:55:59.418Z,69.84
2023-02-03T09:56:59.402Z,69.84
2023-02-03T09:57:59.339Z,69.84
2023-02-03T09:58:59.329Z,69.84
2023-02-03T09:59:59.343Z,69.84
2023-02-03T10:00:59.370Z,69.84
2023-02-03T10:01:59.523Z,69.84
2023-02-03T10:02:59.433Z,69.74
2023-02-03T10:03:59.305Z,69.74
2023-02-03T10:04:59.320Z,69.74
2023-02-03T10:05:59.261Z,69.74
2023-02-03T10:06:59.249Z,69.74
2023-02-03T10:07:59.248Z,69.74
2023-02-03T10:08:59.219Z,69.74
2023-02-03T10:09:59.254Z,69.74
2023-02-03T10:10:59.224Z,69.64
2023-02-03T10:11:59.204Z,69.64
2023-02-03T10:12:59.199Z,69.64
2023-02-03T10:13:59.165Z,69.64
2023-02-03T10:14:59.182Z,69.64
2023-02-03T10:15:59.157Z,69.67
2023-02-03T10:16:59.207Z,69.67
2023-02-03T10:17:59.134Z,69.67
2023-02-03T10:18:59.253Z,69.67
2023-02-03T10:19:59.150Z,69.67
2023-02-03T10:20:59.326Z,69.67
2023-02-03T10:21:59.111Z,69.67
2023-02-03T10:22:59.353Z,69.67
2023-02-03T10:23:59.075Z,69.57
2023-02-03T10:24:59.057Z,69.57
2023-02-03T10:25:59.071Z,69.57
2023-02-03T10:26:59.046Z,69.57
2023-02-03T10:27:59.329Z,69.57
2023-02-03T10:28:59.029Z,69.57
2023-02-03T10:29:59.219Z,69.57
2023-02-03T10:30:59.095Z,69.57
2023-02-03T10:31:59.069Z,69.57
2023-02-03T10:32:59.010Z,69.57
2023-02-03T10:33:58.954Z,69.57
2023-02-03T10:34:59.011Z,69.57
2023-02-03T10:35:58.938Z,69.47
2023-02-03T10:36:58.913Z,69.47
2023-02-03T10:37:58.938Z,69.47
2023-02-03T10:38:58.921Z,69.47
2023-02-03T10:39:58.891Z,69.47
2023-02-03T10:40:58.911Z,69.47
2023-02-03T10:41:58.898Z,69.47
2023-02-03T10:42:58.948Z,69.47
2023-02-03T10:43:58.902Z,69.47
2023-02-03T10:44:58.859Z,69.47
2023-02-03T10:45:58.933Z,69.47
2023-02-03T10:46:58.828Z,69.47
2023-02-03T10:47:58.836Z,69.47
2023-02-03T10:48:59.031Z,69.47
2023-02-03T10:49:58.940Z,69.37
2023-02-03T10:50:58.778Z,69.37
2023-02-03T10:51:58.758Z,69.37
2023-02-03T10:52:58.772Z,69.37
2023-02-03T10:53:58.849Z,69.37
2023-02-03T10:54:58.722Z,69.37
2023-02-03T10:55:58.731Z,69.37
2023-02-03T10:56:58.726Z,69.37
2023-02-03T10:57:58.673Z,69.26
2023-02-03T10:58:58.740Z,69.26
2023-02-03T10:59:58.818Z,69.26
2023-02-03T11:00:58.831Z,69.26
2023-02-03T11:01:58.713Z,69.17
2023-02-03T11:02:58.707Z,69.17
2023-02-03T11:03:58.626Z,69.17
2023-02-03T11:04:58.605Z,69.17
2023-02-03T11:05:58.590Z,69.17
2023-02-03T11:06:58.663Z,69.06
2023-02-03T11:07:58.593Z,69.06
2023-02-03T11:08:58.582Z,69.06
2023-02-03T11:09:58.538Z,69.06
2023-02-03T11:10:58.666Z,69.06
2023-02-03T11:11:58.553Z,69.06
2023-02-03T11:12:58.522Z,69.06
2023-02-03T11:13:58.526Z,69.06
2023-02-03T11:14:58.513Z,69.06
2023-02-03T11:15:58.546Z,69.06
2023-02-03T11:16:58.482Z,69.06
2023-02-03T11:17:58.466Z,69.06
2023-02-03T11:18:58.491Z,69.06
2023-02-03T11:19:58.445Z,69.06
2023-02-03T11:20:58.428Z,69.06
2023-02-03T11:21:58.419Z,68.96
2023-02-03T11:22:58.409Z,68.96
2023-02-03T11:23:58.415Z,68.96
2023-02-03T11:24:58.377Z,68.96
2023-02-03T11:25:58.477Z,68.96
2023-02-03T11:26:58.678Z,68.96
2023-02-03T11:27:58.366Z,68.96
2023-02-03T11:28:58.633Z,68.96
2023-02-03T11:29:58.348Z,68.96
2023-02-03T11:30:58.626Z,68.96
2023-02-03T11:31:58.424Z,68.96
2023-02-03T11:32:58.307Z,68.96
2023-02-03T11:33:58.291Z,68.96
2023-02-03T11:34:58.331Z,68.96
2023-02-03T11:35:58.273Z,68.96
2023-02-03T11:36:58.255Z,68.96
2023-02-03T11:37:58.289Z,68.96
2023-02-03T11:38:58.236Z,68.96
2023-02-03T11:39:58.283Z,68.96
2023-02-03T11:40:58.354Z,68.96
2023-02-03T11:41:58.182Z,68.96
2023-02-03T11:42:58.194Z,68.96
2023-02-03T11:43:58.188Z,68.96
2023-02-03T11:44:58.189Z,68.96
2023-02-03T11:45:58.185Z,68.96
2023-02-03T11:46:59.119Z,68.96
2023-02-03T11:47:58.149Z,68.96
2023-02-03T11:48:58.820Z,68.96
2023-02-03T11:49:58.122Z,68.96
2023-02-03T11:50:58.131Z,68.96
2023-02-03T11:51:58.088Z,68.96
2023-02-03T11:52:58.089Z,68.96
2023-02-03T11:53:58.049Z,68.96
2023-02-03T11:54:58.060Z,68.96
2023-02-03T11:55:58.046Z,68.96
2023-02-03T11:56:58.030Z,68.96
2023-02-03T11:57:58.019Z,68.96
2023-02-03T11:58:58.045Z,68.86
2023-02-03T11:59:58.016Z,68.86
2023-02-03T12:00:58.184Z,68.86
2023-02-03T12:01:57.993Z,68.86
2023-02-03T12:02:58.291Z,68.86
2023-02-03T12:03:57.964Z,68.86
2023-02-03T12:05:00.573Z,68.86
2023-02-03T12:05:57.972Z,68.86
2023-02-03T12:06:57.911Z,68.96
2023-02-03T12:07:57.915Z,69.06
2023-02-03T12:08:57.923Z,69.17
2023-02-03T12:09:57.876Z,69.17
2023-02-03T12:10:57.896Z,69.26
2023-02-03T12:11:58.138Z,69.26
2023-02-03T12:12:57.857Z,69.17
2023-02-03T12:13:57.848Z,69.06
2023-02-03T12:14:58.043Z,69.06
2023-02-03T12:15:57.862Z,68.96
2023-02-03T12:16:58.123Z,68.96
2023-02-03T12:17:57.837Z,68.96
2023-02-03T12:18:57.893Z,68.96
2023-02-03T12:19:57.793Z,68.86
2023-02-03T12:20:57.760Z,68.86
2023-02-03T12:21:57.761Z,68.86
2023-02-03T12:22:57.747Z,68.86
2023-02-03T12:23:57.711Z,68.76
2023-02-03T12:24:57.729Z,68.76
2023-02-03T12:25:57.940Z,68.76
2023-02-03T12:26:57.712Z,68.76
2023-02-03T12:27:57.711Z,68.76
2023-02-03T12:28:57.700Z,68.66
2023-02-03T12:29:57.651Z,68.76
2023-02-03T12:30:57.697Z,68.76
2023-02-03T12:31:57.742Z,68.76
2023-02-03T12:32:57.655Z,68.76
2023-02-03T12:33:57.628Z,68.76
2023-02-03T12:34:57.604Z,68.66
2023-02-03T12:35:57.613Z,68.66
2023-02-03T12:36:57.599Z,68.66
2023-02-03T12:38:08.641Z,68.66
2023-02-03T12:38:57.624Z,68.66
2023-02-03T12:39:57.652Z,68.66
2023-02-03T12:41:04.307Z,68.66
2023-02-03T12:41:57.565Z,68.66
2023-02-03T12:43:00.371Z,68.66
2023-02-03T12:43:58.508Z,68.66
2023-02-03T12:44:57.492Z,68.66
2023-02-03T12:45:57.505Z,68.66
2023-02-03T12:46:57.477Z,68.66
2023-02-03T12:47:57.459Z,68.66
2023-02-03T12:48:57.561Z,68.66
2023-02-03T12:49:57.513Z,68.66
2023-02-03T12:50:57.461Z,68.66
2023-02-03T12:51:57.406Z,68.66